sensor_id;sensor_type;location;lat;lon;timestamp;P1;durP1;ratioP1;P2;durP2;ratioP2
41061;SDS011;26812;42.662;23.352;2022-09-01T00:01:49;12.10;;;10.43;;
41061;SDS011;26812;42.662;23.352;2022-09-01T00:04:17;11.75;;;10.27;;
41061;SDS011;26812;42.662;23.352;2022-09-01T00:06:50;12.45;;;10.75;;
41061;SDS011;26812;42.662;23.352;2022-09-01T00:09:19;14.02;;;11.13;;
41061;SDS011;26812;42.662;23.352;2022-09-01T00:11:47;12.90;;;10.52;;
41061;SDS011;26812;42.662;23.352;2022-09-01T00:14:21;15.57;;;11.55;;
41061;SDS011;26812;42.662;23.352;2022-09-01T00:16:48;15.40;;;11.43;;
41061;SDS011;26812;42.662;23.352;2022-09-01T00:19:14;15.00;;;12.38;;
41061;SDS011;26812;42.662;23.352;2022-09-01T00:21:46;20.42;;;13.88;;
41061;SDS011;26812;42.662;23.352;2022-09-01T00:24:12;17.23;;;13.98;;
41061;SDS011;26812;42.662;23.352;2022-09-01T00:26:40;17.05;;;13.48;;
41061;SDS011;26812;42.662;23.352;2022-09-01T00:29:05;20.63;;;14.13;;
41061;SDS011;26812;42.662;23.352;2022-09-01T00:31:32;21.77;;;14.15;;
41061;SDS011;26812;42.662;23.352;2022-09-01T00:33:58;20.95;;;15.35;;
41061;SDS011;26812;42.662;23.352;2022-09-01T00:36:24;19.15;;;15.27;;
41061;SDS011;26812;42.662;23.352;2022-09-01T00:38:49;18.20;;;13.38;;
41061;SDS011;26812;42.662;23.352;2022-09-01T00:41:16;18.85;;;14.30;;
41061;SDS011;26812;42.662;23.352;2022-09-01T00:43:46;18.90;;;14.30;;
41061;SDS011;26812;42.662;23.352;2022-09-01T00:46:18;20.13;;;14.20;;
41061;SDS011;26812;42.662;23.352;2022-09-01T00:48:52;18.48;;;13.98;;
41061;SDS011;26812;42.662;23.352;2022-09-01T00:51:21;17.63;;;13.52;;
41061;SDS011;26812;42.662;23.352;2022-09-01T00:53:47;17.30;;;13.90;;
41061;SDS011;26812;42.662;23.352;2022-09-01T00:56:13;21.33;;;15.13;;
41061;SDS011;26812;42.662;23.352;2022-09-01T00:58:39;16.75;;;14.07;;
41061;SDS011;26812;42.662;23.352;2022-09-01T01:01:06;19.48;;;15.07;;
41061;SDS011;26812;42.662;23.352;2022-09-01T01:03:33;17.20;;;14.25;;
41061;SDS011;26812;42.662;23.352;2022-09-01T01:06:00;17.88;;;13.57;;
41061;SDS011;26812;42.662;23.352;2022-09-01T01:08:32;18.17;;;13.93;;
41061;SDS011;26812;42.662;23.352;2022-09-01T01:11:01;18.20;;;14.07;;
41061;SDS011;26812;42.662;23.352;2022-09-01T01:13:31;18.90;;;13.80;;
41061;SDS011;26812;42.662;23.352;2022-09-01T01:16:00;15.10;;;12.82;;
41061;SDS011;26812;42.662;23.352;2022-09-01T01:18:27;20.38;;;13.50;;
41061;SDS011;26812;42.662;23.352;2022-09-01T01:21:37;17.40;;;13.63;;
41061;SDS011;26812;42.662;23.352;2022-09-01T01:24:05;16.40;;;12.52;;
41061;SDS011;26812;42.662;23.352;2022-09-01T01:26:43;15.60;;;12.90;;
41061;SDS011;26812;42.662;23.352;2022-09-01T01:29:09;16.33;;;12.90;;
41061;SDS011;26812;42.662;23.352;2022-09-01T01:31:34;19.60;;;11.75;;
41061;SDS011;26812;42.662;23.352;2022-09-01T01:34:00;17.05;;;13.07;;
41061;SDS011;26812;42.662;23.352;2022-09-01T01:36:29;19.70;;;15.52;;
41061;SDS011;26812;42.662;23.352;2022-09-01T01:39:04;15.45;;;11.93;;
41061;SDS011;26812;42.662;23.352;2022-09-01T01:41:35;16.92;;;13.48;;
41061;SDS011;26812;42.662;23.352;2022-09-01T01:44:06;16.23;;;13.00;;
41061;SDS011;26812;42.662;23.352;2022-09-01T01:46:33;18.38;;;14.02;;
41061;SDS011;26812;42.662;23.352;2022-09-01T01:49:00;20.25;;;13.02;;
41061;SDS011;26812;42.662;23.352;2022-09-01T01:51:27;19.10;;;14.30;;
41061;SDS011;26812;42.662;23.352;2022-09-01T01:53:55;22.08;;;15.02;;
41061;SDS011;26812;42.662;23.352;2022-09-01T01:56:21;18.13;;;14.02;;
41061;SDS011;26812;42.662;23.352;2022-09-01T01:58:51;19.05;;;13.65;;
41061;SDS011;26812;42.662;23.352;2022-09-01T02:01:18;16.67;;;12.38;;
41061;SDS011;26812;42.662;23.352;2022-09-01T02:03:46;17.35;;;13.05;;
41061;SDS011;26812;42.662;23.352;2022-09-01T02:06:11;14.55;;;12.48;;
41061;SDS011;26812;42.662;23.352;2022-09-01T02:08:38;17.85;;;12.98;;
41061;SDS011;26812;42.662;23.352;2022-09-01T02:11:04;19.95;;;12.73;;
41061;SDS011;26812;42.662;23.352;2022-09-01T02:13:31;16.30;;;12.50;;
41061;SDS011;26812;42.662;23.352;2022-09-01T02:15:59;16.75;;;12.48;;
41061;SDS011;26812;42.662;23.352;2022-09-01T02:18:30;15.43;;;12.38;;
41061;SDS011;26812;42.662;23.352;2022-09-01T02:20:59;16.17;;;12.30;;
41061;SDS011;26812;42.662;23.352;2022-09-01T02:23:26;15.68;;;12.45;;
41061;SDS011;26812;42.662;23.352;2022-09-01T02:25:53;14.20;;;11.85;;
41061;SDS011;26812;42.662;23.352;2022-09-01T02:28:20;16.25;;;12.73;;
41061;SDS011;26812;42.662;23.352;2022-09-01T02:30:49;17.45;;;12.45;;
41061;SDS011;26812;42.662;23.352;2022-09-01T02:33:19;14.95;;;11.75;;
41061;SDS011;26812;42.662;23.352;2022-09-01T02:35:47;16.48;;;12.60;;
41061;SDS011;26812;42.662;23.352;2022-09-01T02:38:15;15.32;;;11.32;;
41061;SDS011;26812;42.662;23.352;2022-09-01T02:40:42;15.30;;;11.85;;
41061;SDS011;26812;42.662;23.352;2022-09-01T02:43:09;16.48;;;12.32;;
41061;SDS011;26812;42.662;23.352;2022-09-01T02:45:38;17.52;;;12.63;;
41061;SDS011;26812;42.662;23.352;2022-09-01T02:48:08;15.73;;;11.45;;
41061;SDS011;26812;42.662;23.352;2022-09-01T02:50:35;15.98;;;12.90;;
41061;SDS011;26812;42.662;23.352;2022-09-01T02:53:01;15.77;;;12.30;;
41061;SDS011;26812;42.662;23.352;2022-09-01T02:55:30;17.38;;;11.15;;
41061;SDS011;26812;42.662;23.352;2022-09-01T02:57:56;16.13;;;11.70;;
41061;SDS011;26812;42.662;23.352;2022-09-01T03:00:22;17.23;;;12.07;;
41061;SDS011;26812;42.662;23.352;2022-09-01T03:02:53;19.15;;;12.18;;
41061;SDS011;26812;42.662;23.352;2022-09-01T03:05:22;18.67;;;13.23;;
41061;SDS011;26812;42.662;23.352;2022-09-01T03:07:52;15.90;;;12.32;;
41061;SDS011;26812;42.662;23.352;2022-09-01T03:10:21;17.40;;;11.88;;
41061;SDS011;26812;42.662;23.352;2022-09-01T03:12:51;15.77;;;11.95;;
41061;SDS011;26812;42.662;23.352;2022-09-01T03:15:17;17.02;;;11.88;;
41061;SDS011;26812;42.662;23.352;2022-09-01T03:17:42;15.00;;;11.90;;
41061;SDS011;26812;42.662;23.352;2022-09-01T03:20:09;17.27;;;12.65;;
41061;SDS011;26812;42.662;23.352;2022-09-01T03:22:35;17.10;;;12.60;;
41061;SDS011;26812;42.662;23.352;2022-09-01T03:25:00;19.42;;;14.00;;
41061;SDS011;26812;42.662;23.352;2022-09-01T03:27:26;20.00;;;13.85;;
41061;SDS011;26812;42.662;23.352;2022-09-01T03:29:51;16.98;;;13.30;;
41061;SDS011;26812;42.662;23.352;2022-09-01T03:32:16;15.27;;;11.95;;
41061;SDS011;26812;42.662;23.352;2022-09-01T03:34:43;15.45;;;12.30;;
41061;SDS011;26812;42.662;23.352;2022-09-01T03:37:08;18.02;;;13.48;;
41061;SDS011;26812;42.662;23.352;2022-09-01T03:39:34;18.17;;;12.45;;
41061;SDS011;26812;42.662;23.352;2022-09-01T03:42:00;17.38;;;13.40;;
41061;SDS011;26812;42.662;23.352;2022-09-01T03:44:26;17.40;;;13.32;;
41061;SDS011;26812;42.662;23.352;2022-09-01T03:46:51;20.45;;;14.10;;
41061;SDS011;26812;42.662;23.352;2022-09-01T03:49:17;18.08;;;13.07;;
41061;SDS011;26812;42.662;23.352;2022-09-01T03:51:49;15.45;;;13.00;;
41061;SDS011;26812;42.662;23.352;2022-09-01T03:54:17;18.50;;;13.43;;
41061;SDS011;26812;42.662;23.352;2022-09-01T03:56:44;19.83;;;13.95;;
41061;SDS011;26812;42.662;23.352;2022-09-01T03:59:09;17.92;;;13.02;;
41061;SDS011;26812;42.662;23.352;2022-09-01T04:01:40;19.90;;;13.70;;
41061;SDS011;26812;42.662;23.352;2022-09-01T04:04:16;19.73;;;14.23;;
41061;SDS011;26812;42.662;23.352;2022-09-01T04:06:45;17.98;;;13.27;;
41061;SDS011;26812;42.662;23.352;2022-09-01T04:09:11;18.95;;;15.02;;
41061;SDS011;26812;42.662;23.352;2022-09-01T04:11:37;19.65;;;14.38;;
41061;SDS011;26812;42.662;23.352;2022-09-01T04:14:03;17.20;;;13.77;;
41061;SDS011;26812;42.662;23.352;2022-09-01T04:16:30;18.48;;;13.73;;
41061;SDS011;26812;42.662;23.352;2022-09-01T04:19:19;20.73;;;13.35;;
41061;SDS011;26812;42.662;23.352;2022-09-01T04:21:51;17.00;;;13.38;;
41061;SDS011;26812;42.662;23.352;2022-09-01T04:24:20;18.40;;;13.63;;
41061;SDS011;26812;42.662;23.352;2022-09-01T04:26:52;20.48;;;14.20;;
41061;SDS011;26812;42.662;23.352;2022-09-01T04:29:18;19.40;;;15.15;;
41061;SDS011;26812;42.662;23.352;2022-09-01T04:31:51;23.50;;;17.42;;
41061;SDS011;26812;42.662;23.352;2022-09-01T04:34:29;17.45;;;14.05;;
41061;SDS011;26812;42.662;23.352;2022-09-01T04:37:10;23.40;;;15.30;;
41061;SDS011;26812;42.662;23.352;2022-09-01T04:39:47;21.60;;;15.38;;
41061;SDS011;26812;42.662;23.352;2022-09-01T04:42:17;23.10;;;15.00;;
41061;SDS011;26812;42.662;23.352;2022-09-01T04:44:47;25.75;;;16.38;;
41061;SDS011;26812;42.662;23.352;2022-09-01T04:47:12;24.15;;;17.38;;
41061;SDS011;26812;42.662;23.352;2022-09-01T04:49:53;21.90;;;16.00;;
41061;SDS011;26812;42.662;23.352;2022-09-01T04:52:22;26.40;;;17.35;;
41061;SDS011;26812;42.662;23.352;2022-09-01T04:54:47;24.33;;;17.35;;
41061;SDS011;26812;42.662;23.352;2022-09-01T04:57:13;24.42;;;16.10;;
41061;SDS011;26812;42.662;23.352;2022-09-01T04:59:38;21.13;;;15.73;;
41061;SDS011;26812;42.662;23.352;2022-09-01T05:02:04;17.38;;;13.73;;
41061;SDS011;26812;42.662;23.352;2022-09-01T05:04:33;19.65;;;13.45;;
41061;SDS011;26812;42.662;23.352;2022-09-01T05:07:00;23.77;;;15.07;;
41061;SDS011;26812;42.662;23.352;2022-09-01T05:09:27;17.45;;;12.60;;
41061;SDS011;26812;42.662;23.352;2022-09-01T05:11:53;17.50;;;13.27;;
41061;SDS011;26812;42.662;23.352;2022-09-01T05:14:21;18.02;;;14.07;;
41061;SDS011;26812;42.662;23.352;2022-09-01T05:16:48;22.27;;;14.85;;
41061;SDS011;26812;42.662;23.352;2022-09-01T05:19:15;22.20;;;15.30;;
41061;SDS011;26812;42.662;23.352;2022-09-01T05:21:45;19.48;;;13.20;;
41061;SDS011;26812;42.662;23.352;2022-09-01T05:24:16;20.50;;;14.15;;
41061;SDS011;26812;42.662;23.352;2022-09-01T05:26:43;23.83;;;15.80;;
41061;SDS011;26812;42.662;23.352;2022-09-01T05:29:11;22.27;;;16.55;;
41061;SDS011;26812;42.662;23.352;2022-09-01T05:31:41;24.20;;;15.70;;
41061;SDS011;26812;42.662;23.352;2022-09-01T05:34:08;21.60;;;14.85;;
41061;SDS011;26812;42.662;23.352;2022-09-01T05:36:36;22.27;;;15.23;;
41061;SDS011;26812;42.662;23.352;2022-09-01T05:39:05;23.80;;;15.60;;
41061;SDS011;26812;42.662;23.352;2022-09-01T05:41:31;25.38;;;17.05;;
41061;SDS011;26812;42.662;23.352;2022-09-01T05:44:02;22.73;;;15.85;;
41061;SDS011;26812;42.662;23.352;2022-09-01T05:46:32;23.27;;;16.60;;
41061;SDS011;26812;42.662;23.352;2022-09-01T05:48:58;22.88;;;15.88;;
41061;SDS011;26812;42.662;23.352;2022-09-01T05:51:24;30.88;;;18.00;;
41061;SDS011;26812;42.662;23.352;2022-09-01T05:53:53;26.55;;;17.98;;
41061;SDS011;26812;42.662;23.352;2022-09-01T05:56:26;30.48;;;18.88;;
41061;SDS011;26812;42.662;23.352;2022-09-01T05:58:53;29.42;;;18.90;;
41061;SDS011;26812;42.662;23.352;2022-09-01T06:01:20;31.08;;;17.80;;
41061;SDS011;26812;42.662;23.352;2022-09-01T06:03:49;32.08;;;18.48;;
41061;SDS011;26812;42.662;23.352;2022-09-01T06:06:29;30.00;;;18.58;;
41061;SDS011;26812;42.662;23.352;2022-09-01T06:09:02;28.63;;;18.17;;
41061;SDS011;26812;42.662;23.352;2022-09-01T06:11:29;32.50;;;18.27;;
41061;SDS011;26812;42.662;23.352;2022-09-01T06:13:57;31.15;;;19.52;;
41061;SDS011;26812;42.662;23.352;2022-09-01T06:16:27;26.85;;;17.20;;
41061;SDS011;26812;42.662;23.352;2022-09-01T06:18:54;33.40;;;18.80;;
41061;SDS011;26812;42.662;23.352;2022-09-01T06:21:23;28.20;;;18.50;;
41061;SDS011;26812;42.662;23.352;2022-09-01T06:23:49;35.85;;;18.83;;
41061;SDS011;26812;42.662;23.352;2022-09-01T06:26:19;31.05;;;17.73;;
41061;SDS011;26812;42.662;23.352;2022-09-01T06:28:47;27.73;;;17.50;;
41061;SDS011;26812;42.662;23.352;2022-09-01T06:31:18;34.15;;;19.00;;
41061;SDS011;26812;42.662;23.352;2022-09-01T06:33:47;27.88;;;18.30;;
41061;SDS011;26812;42.662;23.352;2022-09-01T06:36:15;31.58;;;19.85;;
41061;SDS011;26812;42.662;23.352;2022-09-01T06:38:42;25.75;;;17.58;;
41061;SDS011;26812;42.662;23.352;2022-09-01T06:41:08;29.90;;;18.10;;
41061;SDS011;26812;42.662;23.352;2022-09-01T06:43:36;31.00;;;19.13;;
41061;SDS011;26812;42.662;23.352;2022-09-01T06:46:05;31.83;;;18.33;;
41061;SDS011;26812;42.662;23.352;2022-09-01T06:48:30;29.48;;;18.50;;
41061;SDS011;26812;42.662;23.352;2022-09-01T06:51:02;27.63;;;17.60;;
41061;SDS011;26812;42.662;23.352;2022-09-01T06:53:29;29.73;;;19.08;;
41061;SDS011;26812;42.662;23.352;2022-09-01T06:55:56;29.08;;;18.27;;
41061;SDS011;26812;42.662;23.352;2022-09-01T06:58:22;29.60;;;18.23;;
41061;SDS011;26812;42.662;23.352;2022-09-01T07:00:48;24.38;;;17.13;;
41061;SDS011;26812;42.662;23.352;2022-09-01T07:03:13;29.40;;;15.95;;
41061;SDS011;26812;42.662;23.352;2022-09-01T07:05:40;29.50;;;16.88;;
41061;SDS011;26812;42.662;23.352;2022-09-01T07:08:09;29.00;;;17.48;;
41061;SDS011;26812;42.662;23.352;2022-09-01T07:10:41;28.50;;;17.33;;
41061;SDS011;26812;42.662;23.352;2022-09-01T07:13:21;25.95;;;16.98;;
41061;SDS011;26812;42.662;23.352;2022-09-01T07:15:49;24.60;;;17.55;;
41061;SDS011;26812;42.662;23.352;2022-09-01T07:18:21;27.88;;;17.98;;
41061;SDS011;26812;42.662;23.352;2022-09-01T07:20:52;29.17;;;17.67;;
41061;SDS011;26812;42.662;23.352;2022-09-01T07:23:18;28.33;;;17.80;;
41061;SDS011;26812;42.662;23.352;2022-09-01T07:25:46;26.05;;;17.60;;
41061;SDS011;26812;42.662;23.352;2022-09-01T07:28:13;27.15;;;18.08;;
41061;SDS011;26812;42.662;23.352;2022-09-01T07:30:42;26.48;;;17.58;;
41061;SDS011;26812;42.662;23.352;2022-09-01T07:33:10;28.27;;;18.23;;
41061;SDS011;26812;42.662;23.352;2022-09-01T07:35:37;23.75;;;16.75;;
41061;SDS011;26812;42.662;23.352;2022-09-01T07:38:04;23.85;;;17.77;;
41061;SDS011;26812;42.662;23.352;2022-09-01T07:40:34;28.63;;;18.60;;
41061;SDS011;26812;42.662;23.352;2022-09-01T07:43:03;24.83;;;17.60;;
41061;SDS011;26812;42.662;23.352;2022-09-01T07:45:32;23.08;;;16.77;;
41061;SDS011;26812;42.662;23.352;2022-09-01T07:48:03;23.77;;;16.38;;
41061;SDS011;26812;42.662;23.352;2022-09-01T07:50:34;21.92;;;14.48;;
41061;SDS011;26812;42.662;23.352;2022-09-01T07:53:01;21.15;;;13.60;;
41061;SDS011;26812;42.662;23.352;2022-09-01T07:55:28;18.58;;;13.55;;
41061;SDS011;26812;42.662;23.352;2022-09-01T07:57:55;22.60;;;13.88;;
41061;SDS011;26812;42.662;23.352;2022-09-01T08:00:22;21.33;;;14.93;;
41061;SDS011;26812;42.662;23.352;2022-09-01T08:02:48;20.15;;;14.27;;
41061;SDS011;26812;42.662;23.352;2022-09-01T08:05:15;23.88;;;15.20;;
41061;SDS011;26812;42.662;23.352;2022-09-01T08:07:46;23.65;;;15.35;;
41061;SDS011;26812;42.662;23.352;2022-09-01T08:10:13;23.65;;;16.80;;
41061;SDS011;26812;42.662;23.352;2022-09-01T08:12:39;23.02;;;17.15;;
41061;SDS011;26812;42.662;23.352;2022-09-01T08:15:06;22.25;;;17.02;;
41061;SDS011;26812;42.662;23.352;2022-09-01T08:17:36;24.35;;;16.83;;
41061;SDS011;26812;42.662;23.352;2022-09-01T08:20:03;22.98;;;16.73;;
41061;SDS011;26812;42.662;23.352;2022-09-01T08:22:35;24.65;;;16.05;;
41061;SDS011;26812;42.662;23.352;2022-09-01T08:25:03;20.88;;;15.98;;
41061;SDS011;26812;42.662;23.352;2022-09-01T08:27:33;25.05;;;15.88;;
41061;SDS011;26812;42.662;23.352;2022-09-01T08:30:03;21.58;;;14.32;;
41061;SDS011;26812;42.662;23.352;2022-09-01T08:32:30;22.48;;;14.93;;
41061;SDS011;26812;42.662;23.352;2022-09-01T08:34:56;22.60;;;14.95;;
41061;SDS011;26812;42.662;23.352;2022-09-01T08:37:22;17.58;;;12.73;;
41061;SDS011;26812;42.662;23.352;2022-09-01T08:39:47;21.95;;;14.85;;
41061;SDS011;26812;42.662;23.352;2022-09-01T08:45:12;23.63;;;15.85;;
41061;SDS011;26812;42.662;23.352;2022-09-01T08:47:39;21.92;;;14.73;;
41061;SDS011;26812;42.662;23.352;2022-09-01T08:50:05;16.92;;;12.57;;
41061;SDS011;26812;42.662;23.352;2022-09-01T08:52:35;18.50;;;12.63;;
41061;SDS011;26812;42.662;23.352;2022-09-01T08:57:52;17.23;;;13.30;;
41061;SDS011;26812;42.662;23.352;2022-09-01T09:00:25;18.92;;;14.25;;
41061;SDS011;26812;42.662;23.352;2022-09-01T09:11:06;15.40;;;11.15;;
41061;SDS011;26812;42.662;23.352;2022-09-01T09:14:04;15.65;;;11.63;;
41061;SDS011;26812;42.662;23.352;2022-09-01T09:16:54;13.73;;;11.35;;
41061;SDS011;26812;42.662;23.352;2022-09-01T09:21:46;19.08;;;11.38;;
41061;SDS011;26812;42.662;23.352;2022-09-01T09:26:55;15.35;;;11.27;;
41061;SDS011;26812;42.662;23.352;2022-09-01T09:29:22;18.75;;;12.65;;
41061;SDS011;26812;42.662;23.352;2022-09-01T09:31:53;17.05;;;11.52;;
41061;SDS011;26812;42.662;23.352;2022-09-01T09:34:34;13.13;;;10.70;;
41061;SDS011;26812;42.662;23.352;2022-09-01T09:42:57;13.85;;;10.80;;
41061;SDS011;26812;42.662;23.352;2022-09-01T09:45:30;12.65;;;9.85;;
41061;SDS011;26812;42.662;23.352;2022-09-01T09:47:58;12.63;;;11.07;;
41061;SDS011;26812;42.662;23.352;2022-09-01T09:50:57;14.43;;;10.13;;
41061;SDS011;26812;42.662;23.352;2022-09-01T09:53:29;14.00;;;10.20;;
41061;SDS011;26812;42.662;23.352;2022-09-01T09:58:54;12.02;;;10.20;;
41061;SDS011;26812;42.662;23.352;2022-09-01T10:03:49;13.80;;;10.32;;
41061;SDS011;26812;42.662;23.352;2022-09-01T10:09:14;13.88;;;11.15;;
41061;SDS011;26812;42.662;23.352;2022-09-01T10:11:57;14.60;;;10.25;;
41061;SDS011;26812;42.662;23.352;2022-09-01T10:14:37;10.85;;;9.30;;
41061;SDS011;26812;42.662;23.352;2022-09-01T10:17:13;11.05;;;9.82;;
41061;SDS011;26812;42.662;23.352;2022-09-01T10:20:43;14.20;;;10.63;;
41061;SDS011;26812;42.662;23.352;2022-09-01T10:22:38;13.23;;;9.90;;
41061;SDS011;26812;42.662;23.352;2022-09-01T10:25:05;13.23;;;11.20;;
41061;SDS011;26812;42.662;23.352;2022-09-01T10:27:34;13.75;;;10.68;;
41061;SDS011;26812;42.662;23.352;2022-09-01T10:30:11;14.15;;;10.50;;
41061;SDS011;26812;42.662;23.352;2022-09-01T10:32:42;12.38;;;10.30;;
41061;SDS011;26812;42.662;23.352;2022-09-01T10:35:13;16.08;;;10.68;;
41061;SDS011;26812;42.662;23.352;2022-09-01T10:37:44;13.50;;;10.48;;
41061;SDS011;26812;42.662;23.352;2022-09-01T10:40:15;15.82;;;11.65;;
41061;SDS011;26812;42.662;23.352;2022-09-01T10:42:45;16.52;;;11.32;;
41061;SDS011;26812;42.662;23.352;2022-09-01T10:45:35;11.82;;;10.55;;
41061;SDS011;26812;42.662;23.352;2022-09-01T10:48:36;14.10;;;10.45;;
41061;SDS011;26812;42.662;23.352;2022-09-01T11:04:16;15.25;;;10.68;;
41061;SDS011;26812;42.662;23.352;2022-09-01T11:17:24;17.05;;;11.18;;
41061;SDS011;26812;42.662;23.352;2022-09-01T11:22:43;13.43;;;10.60;;
41061;SDS011;26812;42.662;23.352;2022-09-01T11:28:46;13.52;;;10.48;;
41061;SDS011;26812;42.662;23.352;2022-09-01T11:44:22;12.05;;;9.27;;
41061;SDS011;26812;42.662;23.352;2022-09-01T11:47:00;11.80;;;9.25;;
41061;SDS011;26812;42.662;23.352;2022-09-01T11:49:29;10.95;;;9.55;;
41061;SDS011;26812;42.662;23.352;2022-09-01T11:51:58;12.10;;;8.93;;
41061;SDS011;26812;42.662;23.352;2022-09-01T11:54:25;10.60;;;8.63;;
41061;SDS011;26812;42.662;23.352;2022-09-01T11:56:52;11.98;;;9.23;;
41061;SDS011;26812;42.662;23.352;2022-09-01T11:59:31;10.77;;;9.38;;
41061;SDS011;26812;42.662;23.352;2022-09-01T12:01:59;12.90;;;9.48;;
41061;SDS011;26812;42.662;23.352;2022-09-01T12:04:29;11.50;;;9.23;;
41061;SDS011;26812;42.662;23.352;2022-09-01T12:07:04;11.02;;;8.50;;
41061;SDS011;26812;42.662;23.352;2022-09-01T12:09:33;12.35;;;8.57;;
41061;SDS011;26812;42.662;23.352;2022-09-01T12:12:07;11.75;;;9.80;;
41061;SDS011;26812;42.662;23.352;2022-09-01T12:14:57;12.52;;;9.13;;
41061;SDS011;26812;42.662;23.352;2022-09-01T12:17:25;11.65;;;9.05;;
41061;SDS011;26812;42.662;23.352;2022-09-01T12:19:51;12.25;;;9.70;;
41061;SDS011;26812;42.662;23.352;2022-09-01T12:22:18;9.48;;;8.45;;
41061;SDS011;26812;42.662;23.352;2022-09-01T12:24:50;14.43;;;10.27;;
41061;SDS011;26812;42.662;23.352;2022-09-01T12:27:18;12.27;;;9.77;;
41061;SDS011;26812;42.662;23.352;2022-09-01T12:29:49;12.13;;;8.90;;
41061;SDS011;26812;42.662;23.352;2022-09-01T12:32:15;10.40;;;9.30;;
41061;SDS011;26812;42.662;23.352;2022-09-01T12:34:43;11.90;;;9.68;;
41061;SDS011;26812;42.662;23.352;2022-09-01T12:37:23;12.75;;;10.02;;
41061;SDS011;26812;42.662;23.352;2022-09-01T12:39:54;12.02;;;9.75;;
41061;SDS011;26812;42.662;23.352;2022-09-01T12:42:32;12.18;;;10.45;;
41061;SDS011;26812;42.662;23.352;2022-09-01T12:49:58;14.60;;;10.50;;
41061;SDS011;26812;42.662;23.352;2022-09-01T12:52:26;12.63;;;10.18;;
41061;SDS011;26812;42.662;23.352;2022-09-01T13:02:45;16.05;;;11.68;;
41061;SDS011;26812;42.662;23.352;2022-09-01T13:05:30;11.77;;;10.10;;
41061;SDS011;26812;42.662;23.352;2022-09-01T13:07:59;12.45;;;10.00;;
41061;SDS011;26812;42.662;23.352;2022-09-01T13:10:27;12.27;;;10.60;;
41061;SDS011;26812;42.662;23.352;2022-09-01T13:12:56;11.18;;;9.55;;
41061;SDS011;26812;42.662;23.352;2022-09-01T13:15:22;13.55;;;9.55;;
41061;SDS011;26812;42.662;23.352;2022-09-01T13:17:49;12.38;;;10.00;;
41061;SDS011;26812;42.662;23.352;2022-09-01T13:20:15;14.80;;;10.32;;
41061;SDS011;26812;42.662;23.352;2022-09-01T13:22:41;12.05;;;9.60;;
41061;SDS011;26812;42.662;23.352;2022-09-01T13:25:08;11.98;;;9.88;;
41061;SDS011;26812;42.662;23.352;2022-09-01T13:27:39;13.95;;;10.75;;
41061;SDS011;26812;42.662;23.352;2022-09-01T13:30:09;14.80;;;9.90;;
41061;SDS011;26812;42.662;23.352;2022-09-01T13:32:39;12.60;;;9.73;;
41061;SDS011;26812;42.662;23.352;2022-09-01T13:35:06;10.27;;;9.13;;
41061;SDS011;26812;42.662;23.352;2022-09-01T13:37:32;12.93;;;9.23;;
41061;SDS011;26812;42.662;23.352;2022-09-01T13:39:58;13.35;;;9.65;;
41061;SDS011;26812;42.662;23.352;2022-09-01T13:42:23;12.65;;;9.43;;
41061;SDS011;26812;42.662;23.352;2022-09-01T13:44:49;13.35;;;9.98;;
41061;SDS011;26812;42.662;23.352;2022-09-01T13:47:14;12.73;;;9.20;;
41061;SDS011;26812;42.662;23.352;2022-09-01T13:49:40;11.43;;;9.43;;
41061;SDS011;26812;42.662;23.352;2022-09-01T13:52:05;12.70;;;10.10;;
41061;SDS011;26812;42.662;23.352;2022-09-01T13:54:30;11.50;;;9.65;;
41061;SDS011;26812;42.662;23.352;2022-09-01T13:56:56;12.90;;;9.13;;
41061;SDS011;26812;42.662;23.352;2022-09-01T13:59:28;12.00;;;9.57;;
41061;SDS011;26812;42.662;23.352;2022-09-01T14:01:54;10.50;;;8.85;;
41061;SDS011;26812;42.662;23.352;2022-09-01T14:04:20;10.15;;;8.20;;
41061;SDS011;26812;42.662;23.352;2022-09-01T14:06:47;10.98;;;7.90;;
41061;SDS011;26812;42.662;23.352;2022-09-01T14:09:13;11.35;;;8.95;;
41061;SDS011;26812;42.662;23.352;2022-09-01T14:11:39;10.70;;;8.00;;
41061;SDS011;26812;42.662;23.352;2022-09-01T14:14:05;11.40;;;8.73;;
41061;SDS011;26812;42.662;23.352;2022-09-01T14:16:31;11.82;;;8.90;;
41061;SDS011;26812;42.662;23.352;2022-09-01T14:18:57;10.00;;;8.18;;
41061;SDS011;26812;42.662;23.352;2022-09-01T14:21:24;10.93;;;8.80;;
41061;SDS011;26812;42.662;23.352;2022-09-01T14:23:50;12.65;;;9.70;;
41061;SDS011;26812;42.662;23.352;2022-09-01T14:26:16;14.75;;;10.15;;
41061;SDS011;26812;42.662;23.352;2022-09-01T14:28:42;16.90;;;10.75;;
41061;SDS011;26812;42.662;23.352;2022-09-01T14:31:10;12.50;;;10.93;;
41061;SDS011;26812;42.662;23.352;2022-09-01T14:33:37;14.30;;;10.13;;
41061;SDS011;26812;42.662;23.352;2022-09-01T14:36:03;14.10;;;9.40;;
41061;SDS011;26812;42.662;23.352;2022-09-01T14:38:30;14.40;;;10.15;;
41061;SDS011;26812;42.662;23.352;2022-09-01T14:40:55;13.00;;;10.10;;
41061;SDS011;26812;42.662;23.352;2022-09-01T14:43:21;12.85;;;10.05;;
41061;SDS011;26812;42.662;23.352;2022-09-01T14:45:47;10.48;;;9.15;;
41061;SDS011;26812;42.662;23.352;2022-09-01T14:48:14;13.70;;;10.05;;
41061;SDS011;26812;42.662;23.352;2022-09-01T14:50:42;16.00;;;11.35;;
41061;SDS011;26812;42.662;23.352;2022-09-01T14:53:09;14.07;;;11.43;;
41061;SDS011;26812;42.662;23.352;2022-09-01T14:55:36;14.82;;;10.77;;
41061;SDS011;26812;42.662;23.352;2022-09-01T14:58:01;11.35;;;10.13;;
41061;SDS011;26812;42.662;23.352;2022-09-01T15:00:27;12.65;;;9.00;;
41061;SDS011;26812;42.662;23.352;2022-09-01T15:02:54;14.25;;;10.75;;
41061;SDS011;26812;42.662;23.352;2022-09-01T15:05:20;17.38;;;10.93;;
41061;SDS011;26812;42.662;23.352;2022-09-01T15:07:46;14.38;;;10.48;;
41061;SDS011;26812;42.662;23.352;2022-09-01T15:10:13;14.35;;;10.75;;
41061;SDS011;26812;42.662;23.352;2022-09-01T15:12:41;11.70;;;9.77;;
41061;SDS011;26812;42.662;23.352;2022-09-01T15:15:07;11.55;;;10.05;;
41061;SDS011;26812;42.662;23.352;2022-09-01T15:17:33;12.10;;;10.23;;
41061;SDS011;26812;42.662;23.352;2022-09-01T15:19:59;12.10;;;10.05;;
41061;SDS011;26812;42.662;23.352;2022-09-01T15:22:46;12.18;;;10.10;;
41061;SDS011;26812;42.662;23.352;2022-09-01T15:25:13;12.57;;;10.65;;
41061;SDS011;26812;42.662;23.352;2022-09-01T15:27:39;12.02;;;10.80;;
41061;SDS011;26812;42.662;23.352;2022-09-01T15:30:05;15.30;;;10.70;;
41061;SDS011;26812;42.662;23.352;2022-09-01T15:32:43;12.30;;;10.55;;
41061;SDS011;26812;42.662;23.352;2022-09-01T15:35:10;13.43;;;10.50;;
41061;SDS011;26812;42.662;23.352;2022-09-01T15:37:37;12.52;;;11.27;;
41061;SDS011;26812;42.662;23.352;2022-09-01T15:40:03;11.38;;;10.20;;
41061;SDS011;26812;42.662;23.352;2022-09-01T15:42:29;13.02;;;10.57;;
41061;SDS011;26812;42.662;23.352;2022-09-01T15:44:55;15.13;;;11.57;;
41061;SDS011;26812;42.662;23.352;2022-09-01T15:47:20;16.13;;;11.02;;
41061;SDS011;26812;42.662;23.352;2022-09-01T15:49:45;11.93;;;10.40;;
41061;SDS011;26812;42.662;23.352;2022-09-01T15:52:11;12.13;;;10.82;;